Time;durP1;ratioP1;P1;durP2;ratioP2;P2;SDS_P1;SDS_P2;PMS_P1;PMS_P2;Temp;Humidity;BMP_temperature;BMP_pressure;BME280_temperature;BME280_humidity;BME280_pressure;Samples;Min_cycle;Max_cycle;Signal;HPM_P1;HPM_P2
2021/12/08 00:00:51;;;;;;;2.10;1.90;;;4.50;99.90;;;;;;5050360;28;20444;-81
2021/12/08 00:03:18;;;;;;;7.40;1.73;;;4.70;99.90;;;;;;5077168;28;20461;-80
2021/12/08 00:05:45;;;;;;;4.10;2.03;;;4.70;99.90;;;;;;5044668;28;20913;-80
2021/12/08 00:08:15;;;;;;;2.60;1.50;;;4.70;99.90;;;;;;5026157;28;20511;-82
2021/12/08 00:13:03;;;;;;;2.60;1.50;;;4.80;99.90;;;;;;5043920;28;20424;-83
2021/12/08 00:13:37;;;;;;;3.53;1.63;;;4.70;99.90;;;;;;5065354;28;20419;-81
2021/12/08 00:16:08;;;;;;;3.93;1.30;;;4.70;99.90;;;;;;5057233;28;20824;-83
2021/12/08 00:18:34;;;;;;;3.03;1.90;;;4.80;99.90;;;;;;5050732;28;20423;-82
2021/12/08 00:21:03;;;;;;;2.20;1.80;;;4.90;99.90;;;;;;5027667;28;20470;-81
2021/12/08 00:23:30;;;;;;;1.50;1.40;;;4.80;99.90;;;;;;5064351;28;20431;-82
2021/12/08 00:25:56;;;;;;;2.60;1.83;;;5.00;99.90;;;;;;5051302;28;20459;-81
2021/12/08 00:28:24;;;;;;;4.50;2.23;;;4.90;99.90;;;;;;5044853;28;20481;-82
2021/12/08 00:30:53;;;;;;;2.00;1.50;;;5.00;99.90;;;;;;5080095;28;20488;-82
2021/12/08 00:33:19;;;;;;;2.60;1.47;;;5.00;99.90;;;;;;5041732;28;20424;-81
2021/12/08 00:35:48;;;;;;;5.43;2.10;;;5.10;99.90;;;;;;5058301;28;20426;-82
2021/12/08 00:38:17;;;;;;;7.30;1.50;;;5.10;99.90;;;;;;5071709;28;21112;-82
2021/12/08 00:40:47;;;;;;;2.93;1.57;;;5.00;99.90;;;;;;5062288;28;20488;-82
2021/12/08 00:43:13;;;;;;;2.67;1.47;;;5.20;99.90;;;;;;5058257;28;20415;-82
2021/12/08 00:45:39;;;;;;;1.83;1.50;;;5.20;99.90;;;;;;5079596;28;20493;-81
2021/12/08 00:48:06;;;;;;;2.40;1.40;;;5.20;99.90;;;;;;5071895;28;20475;-82
2021/12/08 00:50:34;;;;;;;4.53;1.90;;;5.40;99.90;;;;;;5060364;28;20431;-82
2021/12/08 00:53:00;;;;;;;1.90;1.50;;;5.60;99.90;;;;;;5055934;28;20851;-80
2021/12/08 00:55:26;;;;;;;3.07;1.70;;;5.60;99.90;;;;;;5047135;28;20443;-82
2021/12/08 00:57:53;;;;;;;5.97;2.20;;;5.50;99.90;;;;;;5046665;28;20455;-82
2021/12/08 01:00:28;;;;;;;3.23;1.50;;;5.30;99.90;;;;;;5079102;28;20463;-81
2021/12/08 01:02:54;;;;;;;2.97;1.67;;;5.60;99.90;;;;;;5060358;28;20944;-81
2021/12/08 01:05:24;;;;;;;1.90;1.67;;;5.60;99.90;;;;;;5042921;28;20435;-80
2021/12/08 01:07:50;;;;;;;1.80;1.33;;;5.50;99.90;;;;;;5039736;28;20490;-82
2021/12/08 01:10:22;;;;;;;2.70;1.43;;;5.40;99.90;;;;;;5049717;28;20435;-81
2021/12/08 01:12:49;;;;;;;3.97;1.77;;;5.20;99.90;;;;;;5046326;28;20419;-80
2021/12/08 01:15:15;;;;;;;1.60;1.50;;;5.30;99.90;;;;;;5062536;28;20480;-82
2021/12/08 01:17:41;;;;;;;5.77;2.30;;;5.20;99.90;;;;;;5077533;28;20534;-81
2021/12/08 01:20:11;;;;;;;2.07;1.40;;;5.10;99.90;;;;;;5060264;28;20449;-82
2021/12/08 01:22:37;;;;;;;2.57;2.10;;;5.00;99.90;;;;;;5061740;28;20494;-82
2021/12/08 01:25:04;;;;;;;3.47;2.57;;;5.00;99.90;;;;;;5043754;28;20473;-82
2021/12/08 01:27:31;;;;;;;3.47;2.90;;;5.00;99.90;;;;;;5066785;28;20479;-81
2021/12/08 01:29:56;;;;;;;2.90;1.77;;;5.00;99.90;;;;;;5077984;28;20900;-82
2021/12/08 01:32:23;;;;;;;3.03;1.90;;;5.00;99.90;;;;;;5027631;28;20428;-82
2021/12/08 01:34:48;;;;;;;3.03;2.07;;;5.10;99.90;;;;;;5040620;28;20189;-82
2021/12/08 01:37:17;;;;;;;3.83;2.30;;;4.90;99.90;;;;;;5058726;28;20498;-80
2021/12/08 01:39:43;;;;;;;3.20;2.10;;;5.00;99.90;;;;;;5069257;28;20230;-82
2021/12/08 01:42:15;;;;;;;8.13;2.40;;;4.70;99.90;;;;;;5058502;28;20424;-80
2021/12/08 01:47:27;;;;;;;2.90;2.37;;;4.90;99.90;;;;;;5066638;28;20864;-82
2021/12/08 01:49:53;;;;;;;3.20;2.57;;;4.70;99.90;;;;;;5080336;28;20446;-82
2021/12/08 01:52:19;;;;;;;2.80;2.37;;;4.80;99.90;;;;;;5071202;28;20901;-82
2021/12/08 01:54:45;;;;;;;3.77;2.57;;;4.80;99.90;;;;;;5040262;28;20189;-80
2021/12/08 01:57:10;;;;;;;5.43;2.10;;;4.70;99.90;;;;;;5057060;28;20197;-80
2021/12/08 01:59:36;;;;;;;2.83;2.30;;;4.70;99.90;;;;;;5047281;28;20192;-80
2021/12/08 02:02:02;;;;;;;3.60;2.67;;;4.70;99.90;;;;;;5045914;28;20185;-80
2021/12/08 02:04:28;;;;;;;2.43;2.03;;;4.80;99.90;;;;;;5078861;28;20322;-82
2021/12/08 02:06:53;;;;;;;3.33;2.47;;;4.90;99.90;;;;;;5061851;28;20463;-81
2021/12/08 02:09:19;;;;;;;4.60;2.60;;;5.10;99.90;;;;;;5043207;28;20196;-81
2021/12/08 02:11:46;;;;;;;3.37;2.53;;;5.00;99.90;;;;;;5077674;28;20270;-83
2021/12/08 02:14:13;;;;;;;4.50;2.70;;;5.10;99.90;;;;;;5080783;28;20628;-83
2021/12/08 02:16:39;;;;;;;3.07;2.60;;;4.90;99.90;;;;;;5079075;28;20869;-82
2021/12/08 02:19:06;;;;;;;3.03;2.50;;;5.00;99.90;;;;;;5061845;28;20431;-82
2021/12/08 02:21:39;;;;;;;3.60;2.50;;;5.00;99.90;;;;;;5058840;28;20417;-81
2021/12/08 02:24:11;;;;;;;3.20;2.57;;;5.00;99.90;;;;;;5044818;28;20432;-82
2021/12/08 02:26:39;;;;;;;4.97;2.40;;;5.10;99.90;;;;;;5077824;28;20493;-80
2021/12/08 02:29:09;;;;;;;5.00;3.10;;;5.10;99.90;;;;;;5074705;28;20429;-83
2021/12/08 02:47:53;;;;;;;3.17;2.87;;;5.30;99.90;;;;;;5078022;28;20485;-83
2021/12/08 02:50:27;;;;;;;2.40;2.13;;;5.70;99.90;;;;;;5073962;28;20484;-83
2021/12/08 02:52:54;;;;;;;2.70;2.17;;;5.30;99.90;;;;;;5061348;28;21153;-81
2021/12/08 02:55:20;;;;;;;4.27;2.20;;;5.60;99.90;;;;;;5059598;28;20440;-81
2021/12/08 02:57:46;;;;;;;7.80;2.30;;;5.50;99.90;;;;;;5072184;28;20438;-82
2021/12/08 03:00:15;;;;;;;3.30;2.40;;;5.70;99.90;;;;;;5077532;28;20411;-83
2021/12/08 03:02:41;;;;;;;2.63;1.90;;;5.50;99.90;;;;;;5077375;28;20941;-81
2021/12/08 03:05:07;;;;;;;2.17;1.97;;;5.60;99.90;;;;;;5076865;28;20422;-82
2021/12/08 03:07:33;;;;;;;3.20;2.90;;;5.90;99.90;;;;;;5040744;28;20239;-82
2021/12/08 03:10:12;;;;;;;6.10;2.60;;;5.70;99.90;;;;;;5060699;28;20196;-83
2021/12/08 03:12:38;;;;;;;2.13;1.93;;;5.90;99.90;;;;;;5059784;28;20432;-82
2021/12/08 03:15:05;;;;;;;2.57;2.37;;;5.70;99.90;;;;;;5043581;28;20928;-82
2021/12/08 03:17:33;;;;;;;3.10;2.20;;;5.90;99.90;;;;;;5063650;28;20509;-81
2021/12/08 03:19:59;;;;;;;3.83;2.03;;;5.80;99.90;;;;;;5044476;28;20431;-81
2021/12/08 03:22:24;;;;;;;3.33;2.27;;;6.00;99.90;;;;;;5058195;28;20862;-81
2021/12/08 03:24:52;;;;;;;2.07;1.87;;;6.10;99.90;;;;;;5019456;28;20723;-82
2021/12/08 03:27:22;;;;;;;7.00;2.20;;;5.90;99.90;;;;;;5052375;28;20220;-82
2021/12/08 03:29:59;;;;;;;2.30;1.87;;;6.10;99.90;;;;;;5044754;28;20435;-84
2021/12/08 03:32:39;;;;;;;3.50;1.70;;;5.90;99.90;;;;;;5048294;28;20449;-83
2021/12/08 03:35:16;;;;;;;1.93;1.70;;;6.10;99.90;;;;;;5064390;28;21006;-80
2021/12/08 03:37:47;;;;;;;4.27;2.10;;;6.20;99.90;;;;;;5047954;28;20492;-81
2021/12/08 03:40:18;;;;;;;2.90;1.50;;;6.30;99.90;;;;;;5059917;28;20427;-82
2021/12/08 03:42:46;;;;;;;3.60;1.70;;;6.30;99.90;;;;;;5051735;28;20480;-83
2021/12/08 03:45:22;;;;;;;1.73;1.63;;;6.30;99.90;;;;;;5059403;28;20431;-81
2021/12/08 03:47:58;;;;;;;2.67;2.00;;;6.30;99.90;;;;;;5048601;28;20464;-82
2021/12/08 03:50:24;;;;;;;2.47;1.80;;;6.30;99.90;;;;;;5056754;28;21081;-83
2021/12/08 03:52:49;;;;;;;4.47;1.77;;;6.30;99.90;;;;;;5052004;28;20431;-82
2021/12/08 03:55:18;;;;;;;2.00;1.80;;;6.20;99.90;;;;;;5054304;28;20281;-84
2021/12/08 03:57:44;;;;;;;3.73;1.37;;;6.40;99.90;;;;;;5036409;28;20212;-82
2021/12/08 04:00:14;;;;;;;2.70;1.87;;;6.20;99.90;;;;;;5076633;28;20431;-82
2021/12/08 04:02:43;;;;;;;3.70;2.13;;;6.30;99.90;;;;;;5077211;28;20645;-81
2021/12/08 04:05:10;;;;;;;1.93;1.73;;;6.20;99.90;;;;;;5030011;28;20443;-82
2021/12/08 04:07:44;;;;;;;3.40;2.00;;;6.40;99.90;;;;;;5069906;28;20513;-83
2021/12/08 04:10:17;;;;;;;2.60;1.80;;;6.40;99.90;;;;;;5051805;28;21070;-83
2021/12/08 04:12:48;;;;;;;2.60;1.83;;;6.60;99.90;;;;;;5041932;28;20928;-83
2021/12/08 04:15:15;;;;;;;1.70;1.50;;;6.40;99.90;;;;;;5059230;28;20431;-84
2021/12/08 04:17:45;;;;;;;2.43;1.77;;;6.40;99.90;;;;;;5062723;28;20447;-83
2021/12/08 04:20:20;;;;;;;2.23;1.90;;;6.40;99.90;;;;;;5050063;28;20511;-83
2021/12/08 04:22:50;;;;;;;3.30;2.10;;;6.60;99.90;;;;;;5076048;28;20418;-81
2021/12/08 04:25:24;;;;;;;3.50;1.70;;;6.50;99.90;;;;;;5060261;28;20430;-83
2021/12/08 04:27:54;;;;;;;3.57;2.10;;;6.50;99.90;;;;;;5040212;28;20478;-83
2021/12/08 04:30:34;;;;;;;2.10;1.60;;;6.40;99.90;;;;;;5059628;28;20517;-81
2021/12/08 04:33:00;;;;;;;1.90;1.50;;;6.70;99.90;;;;;;5075900;28;20498;-83
2021/12/08 04:35:27;;;;;;;3.93;1.80;;;6.70;99.90;;;;;;5042935;28;20423;-83
2021/12/08 04:38:01;;;;;;;2.60;1.63;;;6.60;99.90;;;;;;5050721;28;20251;-81
2021/12/08 04:40:39;;;;;;;1.90;1.50;;;6.60;99.90;;;;;;5039376;28;20426;-81
2021/12/08 04:46:25;;;;;;;2.80;1.67;;;6.60;99.90;;;;;;5077599;28;20415;-81
2021/12/08 04:49:13;;;;;;;3.10;1.83;;;6.90;99.90;;;;;;5077004;28;20432;-80
2021/12/08 04:51:45;;;;;;;4.43;1.80;;;6.70;99.90;;;;;;5061654;28;20450;-83
2021/12/08 05:02:29;;;;;;;2.27;2.07;;;6.60;99.90;;;;;;5073999;28;20423;-83
2021/12/08 05:05:24;;;;;;;5.93;2.03;;;6.60;99.90;;;;;;5076229;28;20446;-80
2021/12/08 05:10:16;;;;;;;1.90;1.60;;;6.40;99.90;;;;;;5059372;28;20547;-81
2021/12/08 05:12:46;;;;;;;3.43;2.30;;;6.40;99.90;;;;;;5036607;28;20446;-81
2021/12/08 05:15:23;;;;;;;2.53;2.33;;;6.50;99.90;;;;;;5046755;28;20423;-83
2021/12/08 05:18:24;;;;;;;3.53;2.40;;;6.50;99.90;;;;;;5043923;28;20443;-83
2021/12/08 05:21:01;;;;;;;2.43;2.23;;;6.50;99.90;;;;;;5073521;28;20584;-82
2021/12/08 05:23:30;;;;;;;2.83;2.30;;;6.70;99.90;;;;;;5079311;28;21093;-82
2021/12/08 05:25:58;;;;;;;2.40;2.03;;;6.40;99.90;;;;;;5062096;28;20763;-84
2021/12/08 05:28:26;;;;;;;7.30;2.10;;;6.50;99.90;;;;;;5050963;28;20467;-83
2021/12/08 05:31:09;;;;;;;3.20;2.40;;;6.40;99.90;;;;;;5031107;28;20458;-82
2021/12/08 05:33:40;;;;;;;3.87;1.87;;;6.60;99.90;;;;;;5078802;28;20586;-81
2021/12/08 05:36:07;;;;;;;7.07;2.53;;;6.40;99.90;;;;;;5071089;28;20458;-82
2021/12/08 05:38:33;;;;;;;2.30;2.07;;;6.50;99.90;;;;;;5079705;28;20465;-81
2021/12/08 05:41:10;;;;;;;5.03;2.63;;;6.50;99.90;;;;;;5061596;28;20431;-83
2021/12/08 05:43:39;;;;;;;3.27;2.40;;;6.60;99.90;;;;;;5078063;28;20430;-82
2021/12/08 05:46:05;;;;;;;4.43;4.03;;;6.70;99.90;;;;;;5058657;28;20459;-83
2021/12/08 05:48:32;;;;;;;4.90;2.67;;;6.60;99.90;;;;;;5075356;28;20527;-81
2021/12/08 05:51:11;;;;;;;6.67;2.60;;;6.50;99.90;;;;;;5048187;28;21074;-82
2021/12/08 05:53:40;;;;;;;3.03;2.50;;;6.70;99.90;;;;;;5080227;28;20419;-81
2021/12/08 05:56:07;;;;;;;5.53;2.90;;;6.60;99.90;;;;;;5034918;28;20416;-84
2021/12/08 05:58:34;;;;;;;5.70;2.83;;;6.60;99.90;;;;;;5064241;28;20426;-83
2021/12/08 06:01:16;;;;;;;5.43;3.13;;;6.60;99.90;;;;;;5065084;28;20892;-83
2021/12/08 06:03:44;;;;;;;3.00;2.60;;;6.40;99.90;;;;;;5045349;28;20765;-83
2021/12/08 06:06:11;;;;;;;5.20;2.93;;;6.50;99.90;;;;;;5040556;28;20427;-83
2021/12/08 06:08:37;;;;;;;3.30;2.80;;;6.40;99.90;;;;;;5082057;28;20451;-84
2021/12/08 06:11:06;;;;;;;4.30;3.40;;;6.30;99.90;;;;;;5081474;28;20435;-82
2021/12/08 06:13:32;;;;;;;9.07;3.17;;;6.30;99.90;;;;;;5045024;28;20802;-84
2021/12/08 06:15:57;;;;;;;4.87;2.97;;;6.30;99.90;;;;;;5082049;28;20420;-81
2021/12/08 06:18:26;;;;;;;4.63;3.07;;;6.40;99.90;;;;;;5044956;28;20440;-82
2021/12/08 06:20:56;;;;;;;3.90;3.07;;;6.30;99.90;;;;;;5081025;28;20213;-81
2021/12/08 06:23:22;;;;;;;7.80;3.27;;;6.30;99.90;;;;;;5031162;28;20520;-83
2021/12/08 06:25:47;;;;;;;3.97;2.70;;;6.20;99.90;;;;;;5061954;28;20923;-84
2021/12/08 06:28:13;;;;;;;4.80;2.87;;;6.00;99.90;;;;;;5061544;28;20535;-84
2021/12/08 06:30:41;;;;;;;7.53;3.40;;;6.30;99.90;;;;;;5046785;28;20200;-84
2021/12/08 06:33:06;;;;;;;5.10;3.07;;;6.10;99.90;;;;;;5078532;28;20423;-82
2021/12/08 06:35:41;;;;;;;5.10;3.70;;;6.30;99.90;;;;;;5078668;28;20473;-84
2021/12/08 06:38:08;;;;;;;5.17;3.10;;;6.30;99.90;;;;;;5063836;28;20223;-82
2021/12/08 06:40:42;;;;;;;4.77;3.13;;;6.00;99.90;;;;;;5033183;28;20488;-84
2021/12/08 06:43:14;;;;;;;5.07;3.47;;;6.30;99.90;;;;;;5056391;28;20498;-83
2021/12/08 06:45:44;;;;;;;5.60;3.50;;;6.20;99.90;;;;;;5079090;28;20426;-85
2021/12/08 06:48:13;;;;;;;4.47;2.40;;;6.20;99.90;;;;;;5076473;28;20459;-84
2021/12/08 06:50:50;;;;;;;4.17;2.67;;;6.10;99.90;;;;;;5078537;28;20423;-83
2021/12/08 06:53:16;;;;;;;4.90;2.63;;;6.10;99.90;;;;;;5061467;28;20455;-84
2021/12/08 06:55:52;;;;;;;5.40;3.27;;;6.20;99.90;;;;;;5079358;28;20430;-81
2021/12/08 06:58:21;;;;;;;3.43;2.50;;;6.20;99.90;;;;;;5041388;28;20560;-81
2021/12/08 07:03:50;;;;;;;4.03;3.00;;;6.10;99.90;;;;;;5077680;28;20424;-84
2021/12/08 07:06:42;;;;;;;3.90;3.07;;;6.20;99.90;;;;;;5078357;28;20433;-85
2021/12/08 07:09:23;;;;;;;4.50;2.37;;;6.00;99.90;;;;;;5061646;28;20404;-82
2021/12/08 07:11:52;;;;;;;3.80;2.60;;;6.40;99.90;;;;;;5032484;28;20423;-83
2021/12/08 07:14:19;;;;;;;5.83;2.40;;;6.30;99.90;;;;;;5055222;28;20448;-84
2021/12/08 07:16:50;;;;;;;4.40;2.57;;;6.40;99.90;;;;;;5078240;28;20439;-83
2021/12/08 07:19:34;;;;;;;5.80;2.63;;;6.40;99.90;;;;;;5044416;28;20515;-83
2021/12/08 07:22:04;;;;;;;7.20;3.40;;;6.50;99.90;;;;;;5045689;28;20447;-83
2021/12/08 07:24:36;;;;;;;5.83;2.70;;;6.30;99.90;;;;;;5055531;28;20496;-86
2021/12/08 07:27:06;;;;;;;4.30;2.40;;;6.30;99.90;;;;;;5055584;28;20475;-86
2021/12/08 07:29:36;;;;;;;5.17;2.83;;;6.40;99.90;;;;;;5036579;28;20421;-83
2021/12/08 07:32:12;;;;;;;3.30;2.53;;;6.40;99.90;;;;;;5028934;28;20439;-83
2021/12/08 07:34:38;;;;;;;5.23;2.17;;;6.30;99.90;;;;;;5041004;28;20415;-84
2021/12/08 07:37:12;;;;;;;6.97;2.60;;;6.40;99.90;;;;;;5077944;28;20994;-83
2021/12/08 07:39:44;;;;;;;4.43;2.50;;;6.60;99.90;;;;;;5059588;28;20908;-80
2021/12/08 07:42:41;;;;;;;3.50;2.10;;;6.50;99.90;;;;;;5061352;28;20411;-84
2021/12/08 07:45:16;;;;;;;3.43;2.10;;;6.40;99.90;;;;;;5052771;28;20814;-84
2021/12/08 07:47:43;;;;;;;5.97;2.47;;;6.60;99.90;;;;;;5071135;28;20463;-84
2021/12/08 07:50:18;;;;;;;6.30;1.97;;;6.50;99.90;;;;;;5039315;28;20491;-84
2021/12/08 07:52:47;;;;;;;5.87;2.23;;;6.50;99.90;;;;;;5040665;28;20519;-82
2021/12/08 07:55:20;;;;;;;3.07;1.80;;;6.60;99.90;;;;;;5058029;28;20458;-81
2021/12/08 07:57:46;;;;;;;5.20;1.93;;;6.70;99.90;;;;;;5074347;28;20477;-81
2021/12/08 08:00:17;;;;;;;5.53;2.30;;;6.50;99.90;;;;;;5051428;28;20415;-83
2021/12/08 08:02:44;;;;;;;6.03;1.90;;;6.50;99.90;;;;;;5047853;28;20425;-84
2021/12/08 08:05:11;;;;;;;3.93;2.17;;;6.40;99.90;;;;;;5043741;28;20549;-80
2021/12/08 08:07:37;;;;;;;3.93;1.50;;;6.50;99.90;;;;;;5042485;28;21077;-81
2021/12/08 08:10:12;;;;;;;6.00;1.57;;;6.50;99.90;;;;;;5058835;28;20415;-81
2021/12/08 08:12:38;;;;;;;2.67;1.50;;;6.50;99.90;;;;;;5062505;28;20439;-79
2021/12/08 08:15:10;;;;;;;2.90;1.83;;;6.90;99.90;;;;;;5034024;28;20414;-80
2021/12/08 08:17:38;;;;;;;2.50;1.70;;;6.50;99.90;;;;;;5054457;28;20460;-81
2021/12/08 08:20:15;;;;;;;2.60;1.40;;;6.70;99.90;;;;;;5053814;28;20424;-81
2021/12/08 08:22:41;;;;;;;3.87;2.00;;;6.80;99.90;;;;;;5029114;28;20513;-82
2021/12/08 08:25:09;;;;;;;5.83;2.13;;;6.70;99.90;;;;;;5041695;28;20451;-83
2021/12/08 08:27:36;;;;;;;3.43;1.33;;;6.70;99.90;;;;;;5061310;28;20471;-79
2021/12/08 08:30:08;;;;;;;3.93;1.90;;;6.80;99.90;;;;;;5057371;28;20586;-83
2021/12/08 08:32:36;;;;;;;5.13;2.20;;;7.00;99.90;;;;;;5046713;28;20481;-83
2021/12/08 08:35:14;;;;;;;2.93;1.50;;;6.90;99.90;;;;;;5049490;28;20488;-83
2021/12/08 08:37:40;;;;;;;3.53;1.73;;;6.70;99.90;;;;;;5055792;28;20533;-83
2021/12/08 08:40:16;;;;;;;5.77;2.17;;;6.60;99.90;;;;;;5045968;28;20439;-82
2021/12/08 08:42:43;;;;;;;3.13;1.80;;;6.60;99.90;;;;;;5055237;28;20423;-81
2021/12/08 08:45:31;;;;;;;5.90;2.43;;;6.60;99.90;;;;;;5079108;28;20460;-83
2021/12/08 08:48:11;;;;;;;4.07;1.70;;;6.80;99.90;;;;;;5072134;28;20524;-83
2021/12/08 08:51:05;;;;;;;3.23;2.20;;;6.60;99.90;;;;;;5047420;28;21106;-83
2021/12/08 08:53:34;;;;;;;3.17;1.80;;;6.90;99.90;;;;;;5063428;28;20419;-81
2021/12/08 08:56:29;;;;;;;2.17;1.83;;;6.60;99.90;;;;;;5035585;28;20507;-81
2021/12/08 08:59:02;;;;;;;2.97;1.77;;;6.60;99.90;;;;;;5048363;28;20424;-82
2021/12/08 09:01:38;;;;;;;5.13;2.20;;;6.60;99.90;;;;;;5080006;28;20418;-81
2021/12/08 09:04:15;;;;;;;4.23;1.97;;;6.70;99.90;;;;;;5027902;28;20929;-83
2021/12/08 09:06:44;;;;;;;5.20;2.00;;;6.70;99.90;;;;;;5055638;28;20570;-83
2021/12/08 09:09:26;;;;;;;10.20;2.20;;;6.80;99.90;;;;;;5055862;28;20416;-81
2021/12/08 09:12:32;;;;;;;3.73;2.33;;;7.00;99.90;;;;;;5068062;28;20416;-81
2021/12/08 09:15:07;;;;;;;3.63;2.13;;;6.70;99.90;;;;;;5054581;28;20723;-82
2021/12/08 09:17:38;;;;;;;3.70;2.17;;;6.70;99.90;;;;;;5079232;28;20442;-80
2021/12/08 09:20:10;;;;;;;2.90;1.90;;;6.70;99.90;;;;;;5038323;28;20945;-82
2021/12/08 09:22:54;;;;;;;4.33;1.97;;;6.60;99.90;;;;;;5055553;28;20419;-83
2021/12/08 09:25:27;;;;;;;3.60;1.90;;;6.70;99.90;;;;;;5043628;28;20431;-80
2021/12/08 09:27:56;;;;;;;6.10;2.27;;;6.70;99.90;;;;;;5067182;28;20474;-81
2021/12/08 09:30:32;;;;;;;3.53;2.17;;;6.70;99.90;;;;;;5079593;28;20485;-80
2021/12/08 09:33:03;;;;;;;4.97;2.60;;;7.00;99.90;;;;;;5037310;28;20458;-80
2021/12/08 09:35:39;;;;;;;4.57;1.93;;;6.70;99.90;;;;;;5059457;28;20419;-80
2021/12/08 09:38:33;;;;;;;3.80;2.20;;;6.70;99.90;;;;;;5079945;28;20847;-81
2021/12/08 09:41:11;;;;;;;3.07;1.97;;;6.70;99.90;;;;;;5041815;28;20438;-81
2021/12/08 09:44:11;;;;;;;4.87;2.17;;;6.80;99.90;;;;;;5077119;28;20431;-83
2021/12/08 09:46:40;;;;;;;4.63;2.47;;;6.70;99.90;;;;;;5055539;28;20466;-82
2021/12/08 09:49:08;;;;;;;5.60;2.67;;;7.00;99.90;;;;;;5045867;28;20434;-82
2021/12/08 09:51:35;;;;;;;6.23;2.37;;;6.90;99.90;;;;;;5045085;28;20573;-84
2021/12/08 09:54:02;;;;;;;3.13;1.93;;;6.80;99.90;;;;;;5037118;28;20416;-84
2021/12/08 09:56:29;;;;;;;5.70;2.20;;;6.70;99.90;;;;;;5056841;28;20448;-82
2021/12/08 09:58:56;;;;;;;6.10;2.10;;;6.80;99.90;;;;;;5046106;28;20500;-82
2021/12/08 10:01:24;;;;;;;4.63;2.40;;;6.70;99.90;;;;;;5075894;28;20415;-81
2021/12/08 10:03:52;;;;;;;5.97;2.13;;;6.90;99.90;;;;;;5078300;28;20427;-82
2021/12/08 10:06:19;;;;;;;3.50;1.63;;;6.90;99.90;;;;;;5078833;28;21218;-81
2021/12/08 10:08:47;;;;;;;4.93;1.83;;;6.70;99.90;;;;;;5034625;28;20431;-82
2021/12/08 10:11:13;;;;;;;5.73;2.60;;;7.10;99.90;;;;;;5029144;28;20502;-82
2021/12/08 10:13:40;;;;;;;3.80;2.00;;;6.80;99.90;;;;;;5042959;28;20436;-80
2021/12/08 10:16:07;;;;;;;5.67;1.63;;;6.70;99.90;;;;;;5028077;28;20426;-84
2021/12/08 10:18:33;;;;;;;5.40;1.97;;;6.90;99.90;;;;;;5051491;28;20412;-82
2021/12/08 10:20:59;;;;;;;6.10;2.37;;;6.80;99.90;;;;;;5057923;28;20426;-82
2021/12/08 10:23:32;;;;;;;3.83;2.10;;;7.00;99.90;;;;;;5078927;28;20475;-82
2021/12/08 10:26:00;;;;;;;5.80;2.10;;;6.90;99.90;;;;;;5028371;28;20427;-82
2021/12/08 10:28:29;;;;;;;4.63;2.20;;;7.20;99.90;;;;;;5053244;28;20474;-84
2021/12/08 10:31:05;;;;;;;11.20;2.20;;;6.90;99.90;;;;;;5053428;28;20478;-84
2021/12/08 10:33:49;;;;;;;7.30;2.13;;;6.80;99.90;;;;;;5071402;28;20423;-84
2021/12/08 10:36:43;;;;;;;10.53;2.27;;;7.10;99.90;;;;;;5063288;28;20450;-83
2021/12/08 10:39:16;;;;;;;6.50;2.27;;;6.70;99.90;;;;;;5047349;28;20522;-80
2021/12/08 10:41:51;;;;;;;3.43;1.90;;;7.10;99.90;;;;;;5047564;28;20428;-83
2021/12/08 10:44:27;;;;;;;3.97;1.93;;;7.00;99.90;;;;;;5054375;28;20569;-83
2021/12/08 10:46:57;;;;;;;4.50;1.70;;;7.00;99.90;;;;;;5037336;28;21054;-83
2021/12/08 10:54:24;;;;;;;3.30;1.80;;;7.10;99.90;;;;;;5060790;28;20428;-83
2021/12/08 10:54:55;;;;;;;7.47;1.50;;;6.90;99.90;;;;;;5049521;28;20462;-83
2021/12/08 10:57:34;;;;;;;6.80;1.80;;;7.20;99.90;;;;;;5040025;28;20992;-81
2021/12/08 11:00:17;;;;;;;3.17;1.30;;;7.10;99.90;;;;;;5052030;28;20278;-81
2021/12/08 11:02:55;;;;;;;3.23;1.83;;;7.00;99.90;;;;;;5049941;28;20495;-85
2021/12/08 11:05:24;;;;;;;5.17;1.70;;;7.10;99.90;;;;;;5077175;28;20431;-84
2021/12/08 11:08:08;;;;;;;5.20;2.00;;;7.40;99.90;;;;;;5058696;28;20469;-83
2021/12/08 11:11:05;;;;;;;3.97;1.87;;;7.30;99.90;;;;;;5049980;28;20415;-83
2021/12/08 11:13:41;;;;;;;3.07;1.87;;;7.40;99.90;;;;;;5040861;28;21043;-81
2021/12/08 11:16:12;;;;;;;3.70;1.57;;;7.10;99.90;;;;;;5059133;28;20423;-83
2021/12/08 11:18:41;;;;;;;3.07;1.60;;;7.40;99.90;;;;;;5060263;28;20967;-80
2021/12/08 11:21:25;;;;;;;8.17;1.90;;;7.50;99.90;;;;;;5043218;28;20484;-82
2021/12/08 11:23:53;;;;;;;3.93;1.47;;;7.30;99.90;;;;;;5025162;28;20431;-83
2021/12/08 11:26:33;;;;;;;4.17;1.90;;;7.40;99.90;;;;;;5040969;28;20448;-84
2021/12/08 11:29:09;;;;;;;6.93;2.00;;;7.40;99.90;;;;;;5072500;28;20508;-81
2021/12/08 11:31:44;;;;;;;5.63;1.87;;;7.50;99.90;;;;;;5027287;28;20523;-83
2021/12/08 11:34:18;;;;;;;2.97;1.63;;;7.40;99.90;;;;;;5060163;28;20416;-82
2021/12/08 11:36:45;;;;;;;5.43;1.57;;;7.30;99.90;;;;;;5039954;28;21094;-84
2021/12/08 11:39:15;;;;;;;3.80;1.80;;;7.40;99.90;;;;;;5043824;28;20482;-80
2021/12/08 11:41:49;;;;;;;4.20;1.97;;;7.50;99.90;;;;;;5060516;28;20419;-83
2021/12/08 11:44:18;;;;;;;3.47;1.80;;;7.60;99.90;;;;;;5052331;28;20442;-83
2021/12/08 11:46:47;;;;;;;3.33;1.50;;;7.60;99.90;;;;;;5049586;28;20462;-83
2021/12/08 11:49:13;;;;;;;4.83;2.00;;;7.60;99.90;;;;;;5059767;28;20419;-83
2021/12/08 11:51:44;;;;;;;4.90;2.00;;;7.60;99.90;;;;;;5059548;28;20916;-84
2021/12/08 11:54:33;;;;;;;4.83;1.70;;;8.20;99.90;;;;;;5076643;28;20519;-82
2021/12/08 11:57:13;;;;;;;6.53;2.27;;;8.20;99.90;;;;;;5059427;28;20443;-80
2021/12/08 11:59:56;;;;;;;3.70;1.40;;;8.40;99.90;;;;;;5027755;28;20832;-84
2021/12/08 12:02:51;;;;;;;5.27;2.03;;;8.70;99.90;;;;;;5055801;28;20415;-83
2021/12/08 12:05:20;;;;;;;10.60;1.97;;;8.90;99.90;;;;;;5040081;28;20444;-83
2021/12/08 12:07:47;;;;;;;9.63;2.10;;;9.00;99.90;;;;;;5057692;28;20464;-84
2021/12/08 12:10:16;;;;;;;2.57;1.20;;;9.10;99.90;;;;;;5043806;28;20477;-82
2021/12/08 12:12:43;;;;;;;6.27;1.83;;;9.40;99.90;;;;;;5059300;28;20459;-85
2021/12/08 12:15:11;;;;;;;2.33;1.40;;;9.50;99.90;;;;;;5058234;28;20923;-81
2021/12/08 12:17:37;;;;;;;2.33;1.30;;;9.10;99.90;;;;;;5061033;28;20517;-83
2021/12/08 12:20:21;;;;;;;3.90;1.50;;;8.90;99.90;;;;;;5060975;28;20435;-83
2021/12/08 12:23:20;;;;;;;6.27;1.53;;;8.30;99.90;;;;;;5061944;28;20434;-82
2021/12/08 12:26:03;;;;;;;7.40;1.90;;;8.10;99.90;;;;;;5048434;28;20431;-83
2021/12/08 12:29:00;;;;;;;3.00;1.40;;;8.10;99.90;;;;;;5073690;28;20454;-83
2021/12/08 12:31:59;;;;;;;7.60;2.30;;;7.90;99.90;;;;;;5080621;28;20502;-82
2021/12/08 12:34:38;;;;;;;2.70;1.50;;;7.90;99.90;;;;;;5061305;28;20423;-81
2021/12/08 12:37:16;;;;;;;4.07;1.40;;;8.00;99.90;;;;;;5063123;28;20526;-82
2021/12/08 12:39:50;;;;;;;5.30;2.07;;;8.10;99.90;;;;;;5079939;28;20441;-83
2021/12/08 12:42:18;;;;;;;4.63;1.60;;;7.70;99.90;;;;;;5080196;28;20432;-83
2021/12/08 12:45:05;;;;;;;4.97;1.90;;;7.80;99.90;;;;;;5062980;28;20435;-83
2021/12/08 12:47:31;;;;;;;5.43;1.77;;;8.00;99.90;;;;;;5060138;28;20805;-81
2021/12/08 12:50:00;;;;;;;4.10;1.57;;;7.90;99.90;;;;;;5062782;28;20423;-82
2021/12/08 12:52:39;;;;;;;3.57;1.43;;;7.90;99.90;;;;;;5063144;28;20428;-83
2021/12/08 12:55:15;;;;;;;3.40;1.57;;;7.90;99.90;;;;;;5056252;28;20511;-84
2021/12/08 12:57:59;;;;;;;6.33;1.43;;;8.10;99.90;;;;;;5038639;28;20469;-81
2021/12/08 13:00:28;;;;;;;3.40;1.20;;;7.90;99.90;;;;;;5057648;28;20437;-83
2021/12/08 13:02:53;;;;;;;4.67;1.50;;;8.00;99.90;;;;;;5040481;28;20434;-84
2021/12/08 13:05:19;;;;;;;5.70;1.70;;;8.00;99.90;;;;;;5045899;28;20526;-81
2021/12/08 13:07:59;;;;;;;7.17;2.33;;;7.80;99.90;;;;;;5079238;28;20224;-83
2021/12/08 13:10:38;;;;;;;2.87;1.33;;;7.90;99.90;;;;;;5053084;28;20181;-80
2021/12/08 13:13:17;;;;;;;3.90;1.50;;;7.90;99.90;;;;;;5060576;28;20431;-83
2021/12/08 13:15:47;;;;;;;5.00;1.70;;;8.00;99.90;;;;;;5078476;28;20801;-82
2021/12/08 13:18:17;;;;;;;5.10;1.80;;;7.70;99.90;;;;;;5069117;28;20444;-83
2021/12/08 13:20:45;;;;;;;2.70;1.10;;;7.90;99.90;;;;;;5077874;28;20529;-83
2021/12/08 13:23:21;;;;;;;3.80;1.47;;;8.10;99.90;;;;;;5058613;28;20423;-83
2021/12/08 13:28:28;;;;;;;5.10;1.40;;;8.00;99.90;;;;;;5051197;28;20558;-82
2021/12/08 13:30:56;;;;;;;4.37;1.53;;;8.10;99.90;;;;;;5059766;28;20538;-83
2021/12/08 13:33:36;;;;;;;2.50;1.30;;;7.90;99.90;;;;;;5079976;28;20434;-84
2021/12/08 13:36:20;;;;;;;4.90;1.70;;;8.00;99.90;;;;;;5033323;28;20434;-83
2021/12/08 13:39:14;;;;;;;6.27;1.30;;;7.80;99.90;;;;;;5063318;28;20793;-83
2021/12/08 13:41:54;;;;;;;3.20;1.10;;;7.80;99.90;;;;;;5063601;28;20423;-83
2021/12/08 13:45:07;;;;;;;2.53;1.57;;;7.80;99.90;;;;;;5047707;28;20428;-83
2021/12/08 13:47:34;;;;;;;4.40;2.07;;;8.00;99.90;;;;;;5019531;28;20481;-84
2021/12/08 13:50:09;;;;;;;6.63;1.73;;;7.90;99.90;;;;;;5068126;28;20432;-84
2021/12/08 13:52:37;;;;;;;3.70;1.33;;;7.90;99.90;;;;;;5070602;28;20436;-85
2021/12/08 13:55:09;;;;;;;3.17;1.33;;;7.70;99.90;;;;;;5061998;28;20428;-84
2021/12/08 13:57:36;;;;;;;2.30;1.47;;;7.80;99.90;;;;;;5070873;28;20447;-84
2021/12/08 14:00:02;;;;;;;3.90;1.80;;;7.90;99.90;;;;;;5046873;28;20435;-84
2021/12/08 14:02:31;;;;;;;2.83;1.57;;;7.70;99.90;;;;;;5079016;28;20449;-84
2021/12/08 14:05:08;;;;;;;2.00;1.07;;;7.50;99.90;;;;;;5049408;28;20198;-83